sensor_id;sensor_type;location;lat;lon;timestamp;temperature;humidity
4505;DHT22;2265;48.794;9.520;2023-08-06T00:02:17;17.20;98.00
4505;DHT22;2265;48.794;9.520;2023-08-06T00:04:44;17.20;98.00
4505;DHT22;2265;48.794;9.520;2023-08-06T00:07:11;17.40;98.00
4505;DHT22;2265;48.794;9.520;2023-08-06T00:09:38;17.40;98.00
4505;DHT22;2265;48.794;9.520;2023-08-06T00:12:06;17.50;98.00
4505;DHT22;2265;48.794;9.520;2023-08-06T00:14:35;17.50;98.00
4505;DHT22;2265;48.794;9.520;2023-08-06T00:17:02;17.30;98.00
4505;DHT22;2265;48.794;9.520;2023-08-06T00:19:31;17.00;98.00
4505;DHT22;2265;48.794;9.520;2023-08-06T00:21:58;17.00;98.00
4505;DHT22;2265;48.794;9.520;2023-08-06T00:24:25;17.00;98.00
4505;DHT22;2265;48.794;9.520;2023-08-06T00:26:52;17.00;98.00
4505;DHT22;2265;48.794;9.520;2023-08-06T00:29:19;17.00;98.00
4505;DHT22;2265;48.794;9.520;2023-08-06T00:31:51;17.00;98.00
4505;DHT22;2265;48.794;9.520;2023-08-06T00:34:18;17.00;98.00
4505;DHT22;2265;48.794;9.520;2023-08-06T00:36:45;17.00;98.00
4505;DHT22;2265;48.794;9.520;2023-08-06T00:39:14;16.90;98.00
4505;DHT22;2265;48.794;9.520;2023-08-06T00:41:42;17.00;98.00
4505;DHT22;2265;48.794;9.520;2023-08-06T00:44:09;17.00;98.00
4505;DHT22;2265;48.794;9.520;2023-08-06T00:46:36;17.00;98.00
4505;DHT22;2265;48.794;9.520;2023-08-06T00:49:05;17.00;98.00
4505;DHT22;2265;48.794;9.520;2023-08-06T00:51:32;17.00;98.00
4505;DHT22;2265;48.794;9.520;2023-08-06T00:54:01;17.00;98.00
4505;DHT22;2265;48.794;9.520;2023-08-06T00:56:29;16.90;98.00
4505;DHT22;2265;48.794;9.520;2023-08-06T00:58:59;16.90;98.00
4505;DHT22;2265;48.794;9.520;2023-08-06T01:01:26;16.70;98.00
4505;DHT22;2265;48.794;9.520;2023-08-06T01:03:53;16.70;98.00
4505;DHT22;2265;48.794;9.520;2023-08-06T01:06:35;16.70;98.00
4505;DHT22;2265;48.794;9.520;2023-08-06T01:09:15;16.60;98.00
4505;DHT22;2265;48.794;9.520;2023-08-06T01:11:51;16.60;98.00
4505;DHT22;2265;48.794;9.520;2023-08-06T01:14:26;16.70;98.00
4505;DHT22;2265;48.794;9.520;2023-08-06T01:16:55;16.70;98.00
4505;DHT22;2265;48.794;9.520;2023-08-06T01:19:23;16.70;98.00
4505;DHT22;2265;48.794;9.520;2023-08-06T01:21:52;16.70;98.00
4505;DHT22;2265;48.794;9.520;2023-08-06T01:24:19;16.60;98.00
4505;DHT22;2265;48.794;9.520;2023-08-06T01:26:58;16.50;98.00
4505;DHT22;2265;48.794;9.520;2023-08-06T01:29:31;16.50;98.00
4505;DHT22;2265;48.794;9.520;2023-08-06T01:32:02;16.50;98.00
4505;DHT22;2265;48.794;9.520;2023-08-06T01:34:32;16.30;98.00
4505;DHT22;2265;48.794;9.520;2023-08-06T01:37:03;16.20;98.00
4505;DHT22;2265;48.794;9.520;2023-08-06T01:39:33;16.30;98.00
4505;DHT22;2265;48.794;9.520;2023-08-06T01:42:00;16.30;98.00
4505;DHT22;2265;48.794;9.520;2023-08-06T01:44:27;16.40;98.00
4505;DHT22;2265;48.794;9.520;2023-08-06T01:46:55;16.50;98.00
4505;DHT22;2265;48.794;9.520;2023-08-06T01:49:25;16.40;98.00
4505;DHT22;2265;48.794;9.520;2023-08-06T01:51:52;16.40;98.00
4505;DHT22;2265;48.794;9.520;2023-08-06T01:54:20;16.30;98.00
4505;DHT22;2265;48.794;9.520;2023-08-06T01:56:48;16.30;98.00
4505;DHT22;2265;48.794;9.520;2023-08-06T01:59:15;16.40;98.00
4505;DHT22;2265;48.794;9.520;2023-08-06T02:01:42;16.40;98.00
4505;DHT22;2265;48.794;9.520;2023-08-06T02:04:09;16.40;98.00
4505;DHT22;2265;48.794;9.520;2023-08-06T02:06:37;16.30;98.00
4505;DHT22;2265;48.794;9.520;2023-08-06T02:09:13;16.20;98.00
4505;DHT22;2265;48.794;9.520;2023-08-06T02:11:41;16.20;98.00
4505;DHT22;2265;48.794;9.520;2023-08-06T02:14:09;16.30;98.00
4505;DHT22;2265;48.794;9.520;2023-08-06T02:16:36;16.40;98.00
4505;DHT22;2265;48.794;9.520;2023-08-06T02:19:03;16.40;98.00
4505;DHT22;2265;48.794;9.520;2023-08-06T02:21:30;16.50;98.00
4505;DHT22;2265;48.794;9.520;2023-08-06T02:23:57;16.50;98.00
4505;DHT22;2265;48.794;9.520;2023-08-06T02:26:24;16.60;98.00
4505;DHT22;2265;48.794;9.520;2023-08-06T02:28:52;16.50;98.00
4505;DHT22;2265;48.794;9.520;2023-08-06T02:31:19;16.50;98.00
4505;DHT22;2265;48.794;9.520;2023-08-06T02:33:47;16.60;98.00
4505;DHT22;2265;48.794;9.520;2023-08-06T02:36:14;16.50;98.00
4505;DHT22;2265;48.794;9.520;2023-08-06T02:38:41;16.50;98.00
4505;DHT22;2265;48.794;9.520;2023-08-06T02:41:08;16.50;98.00
4505;DHT22;2265;48.794;9.520;2023-08-06T02:43:35;16.50;98.00
4505;DHT22;2265;48.794;9.520;2023-08-06T02:46:04;16.60;98.00
4505;DHT22;2265;48.794;9.520;2023-08-06T02:48:31;16.60;98.00
4505;DHT22;2265;48.794;9.520;2023-08-06T02:50:58;16.50;98.00
4505;DHT22;2265;48.794;9.520;2023-08-06T02:53:26;16.50;98.00
4505;DHT22;2265;48.794;9.520;2023-08-06T02:55:52;16.50;98.00
4505;DHT22;2265;48.794;9.520;2023-08-06T02:58:19;16.40;98.00
4505;DHT22;2265;48.794;9.520;2023-08-06T03:00:59;16.50;98.00
4505;DHT22;2265;48.794;9.520;2023-08-06T03:03:28;16.40;98.00
4505;DHT22;2265;48.794;9.520;2023-08-06T03:05:55;16.30;98.00
4505;DHT22;2265;48.794;9.520;2023-08-06T03:08:23;16.10;98.00
4505;DHT22;2265;48.794;9.520;2023-08-06T03:10:50;16.00;98.00
4505;DHT22;2265;48.794;9.520;2023-08-06T03:13:17;16.00;98.00
4505;DHT22;2265;48.794;9.520;2023-08-06T03:15:52;16.10;98.00
4505;DHT22;2265;48.794;9.520;2023-08-06T03:18:20;16.00;98.00
4505;DHT22;2265;48.794;9.520;2023-08-06T03:20:49;15.90;98.00
4505;DHT22;2265;48.794;9.520;2023-08-06T03:23:16;15.90;98.00
4505;DHT22;2265;48.794;9.520;2023-08-06T03:25:43;15.90;98.00
4505;DHT22;2265;48.794;9.520;2023-08-06T03:28:10;16.00;98.00
4505;DHT22;2265;48.794;9.520;2023-08-06T03:35:45;16.00;98.00
4505;DHT22;2265;48.794;9.520;2023-08-06T03:40:47;16.00;98.00
4505;DHT22;2265;48.794;9.520;2023-08-06T03:43:14;15.90;98.00
4505;DHT22;2265;48.794;9.520;2023-08-06T03:45:41;15.90;98.00
4505;DHT22;2265;48.794;9.520;2023-08-06T03:48:09;15.80;98.00
4505;DHT22;2265;48.794;9.520;2023-08-06T03:50:36;15.70;98.00
4505;DHT22;2265;48.794;9.520;2023-08-06T03:53:03;15.70;98.00
4505;DHT22;2265;48.794;9.520;2023-08-06T03:55:30;15.70;98.00
4505;DHT22;2265;48.794;9.520;2023-08-06T03:57:59;15.70;98.00
4505;DHT22;2265;48.794;9.520;2023-08-06T04:00:26;15.80;98.00
4505;DHT22;2265;48.794;9.520;2023-08-06T04:02:53;15.90;98.00
4505;DHT22;2265;48.794;9.520;2023-08-06T04:05:20;15.70;98.00
4505;DHT22;2265;48.794;9.520;2023-08-06T04:07:47;15.70;98.00
4505;DHT22;2265;48.794;9.520;2023-08-06T04:10:17;15.60;98.00
4505;DHT22;2265;48.794;9.520;2023-08-06T04:12:44;15.50;98.00
4505;DHT22;2265;48.794;9.520;2023-08-06T04:15:12;15.50;98.00
4505;DHT22;2265;48.794;9.520;2023-08-06T04:17:39;15.50;98.00
4505;DHT22;2265;48.794;9.520;2023-08-06T04:20:07;15.50;98.00
4505;DHT22;2265;48.794;9.520;2023-08-06T04:22:34;15.50;98.00
4505;DHT22;2265;48.794;9.520;2023-08-06T04:25:01;15.50;98.00
4505;DHT22;2265;48.794;9.520;2023-08-06T04:27:28;15.60;98.00
4505;DHT22;2265;48.794;9.520;2023-08-06T04:29:56;15.60;98.00
4505;DHT22;2265;48.794;9.520;2023-08-06T04:32:24;15.60;98.00
4505;DHT22;2265;48.794;9.520;2023-08-06T04:34:55;15.80;98.00
4505;DHT22;2265;48.794;9.520;2023-08-06T04:37:22;15.90;98.00
4505;DHT22;2265;48.794;9.520;2023-08-06T04:39:49;15.90;98.00
4505;DHT22;2265;48.794;9.520;2023-08-06T04:42:16;15.90;98.00
4505;DHT22;2265;48.794;9.520;2023-08-06T04:44:43;15.90;98.00
4505;DHT22;2265;48.794;9.520;2023-08-06T04:47:10;15.90;98.00
4505;DHT22;2265;48.794;9.520;2023-08-06T04:49:39;16.00;98.00
4505;DHT22;2265;48.794;9.520;2023-08-06T04:52:06;15.90;98.00
4505;DHT22;2265;48.794;9.520;2023-08-06T04:54:34;15.90;98.00
4505;DHT22;2265;48.794;9.520;2023-08-06T04:57:01;15.90;98.00
4505;DHT22;2265;48.794;9.520;2023-08-06T04:59:28;15.80;98.00
4505;DHT22;2265;48.794;9.520;2023-08-06T05:01:55;15.80;98.00
4505;DHT22;2265;48.794;9.520;2023-08-06T05:04:23;15.80;98.00
4505;DHT22;2265;48.794;9.520;2023-08-06T05:06:51;15.80;98.00
4505;DHT22;2265;48.794;9.520;2023-08-06T05:09:18;15.80;98.00
4505;DHT22;2265;48.794;9.520;2023-08-06T05:11:46;15.90;98.00
4505;DHT22;2265;48.794;9.520;2023-08-06T05:14:14;15.80;98.00
4505;DHT22;2265;48.794;9.520;2023-08-06T05:16:42;15.80;98.00
4505;DHT22;2265;48.794;9.520;2023-08-06T05:19:11;15.90;98.00
4505;DHT22;2265;48.794;9.520;2023-08-06T05:21:39;15.80;98.00
4505;DHT22;2265;48.794;9.520;2023-08-06T05:24:07;15.70;98.00
4505;DHT22;2265;48.794;9.520;2023-08-06T05:26:34;15.70;98.00
4505;DHT22;2265;48.794;9.520;2023-08-06T05:29:01;15.60;98.00
4505;DHT22;2265;48.794;9.520;2023-08-06T05:31:28;15.70;98.00
4505;DHT22;2265;48.794;9.520;2023-08-06T05:33:55;15.70;98.00
4505;DHT22;2265;48.794;9.520;2023-08-06T05:36:23;15.70;98.00
4505;DHT22;2265;48.794;9.520;2023-08-06T05:38:50;15.80;98.00
4505;DHT22;2265;48.794;9.520;2023-08-06T05:41:19;15.90;98.00
4505;DHT22;2265;48.794;9.520;2023-08-06T05:43:46;15.80;98.00
4505;DHT22;2265;48.794;9.520;2023-08-06T05:46:13;15.70;98.00
4505;DHT22;2265;48.794;9.520;2023-08-06T05:48:40;15.80;98.00
4505;DHT22;2265;48.794;9.520;2023-08-06T05:51:07;15.70;98.00
4505;DHT22;2265;48.794;9.520;2023-08-06T05:53:34;15.70;98.00
4505;DHT22;2265;48.794;9.520;2023-08-06T05:56:01;15.80;98.00
4505;DHT22;2265;48.794;9.520;2023-08-06T05:58:29;15.80;98.00
4505;DHT22;2265;48.794;9.520;2023-08-06T06:00:57;15.90;98.00
4505;DHT22;2265;48.794;9.520;2023-08-06T06:03:24;15.90;98.00
4505;DHT22;2265;48.794;9.520;2023-08-06T06:05:51;16.00;98.00
4505;DHT22;2265;48.794;9.520;2023-08-06T06:08:18;16.10;98.00
4505;DHT22;2265;48.794;9.520;2023-08-06T06:10:45;16.20;98.00
4505;DHT22;2265;48.794;9.520;2023-08-06T06:13:15;16.30;98.00
4505;DHT22;2265;48.794;9.520;2023-08-06T06:15:44;16.30;98.00
4505;DHT22;2265;48.794;9.520;2023-08-06T06:18:14;16.20;98.00
4505;DHT22;2265;48.794;9.520;2023-08-06T06:20:41;16.30;98.00
4505;DHT22;2265;48.794;9.520;2023-08-06T06:23:08;16.20;98.00
4505;DHT22;2265;48.794;9.520;2023-08-06T06:25:35;16.20;98.00
4505;DHT22;2265;48.794;9.520;2023-08-06T06:28:03;16.30;98.00
4505;DHT22;2265;48.794;9.520;2023-08-06T06:30:30;16.30;98.00
4505;DHT22;2265;48.794;9.520;2023-08-06T06:32:58;16.30;98.00
4505;DHT22;2265;48.794;9.520;2023-08-06T06:35:25;16.40;98.00
4505;DHT22;2265;48.794;9.520;2023-08-06T06:37:52;16.40;98.00
4505;DHT22;2265;48.794;9.520;2023-08-06T06:40:19;16.30;98.00
4505;DHT22;2265;48.794;9.520;2023-08-06T06:42:47;16.30;98.00
4505;DHT22;2265;48.794;9.520;2023-08-06T06:45:14;16.50;98.00
4505;DHT22;2265;48.794;9.520;2023-08-06T06:47:41;16.40;98.00
4505;DHT22;2265;48.794;9.520;2023-08-06T06:50:10;16.40;98.00
4505;DHT22;2265;48.794;9.520;2023-08-06T06:52:40;16.50;98.00
4505;DHT22;2265;48.794;9.520;2023-08-06T06:55:08;16.60;98.00
4505;DHT22;2265;48.794;9.520;2023-08-06T06:57:36;16.70;98.00
4505;DHT22;2265;48.794;9.520;2023-08-06T07:00:03;16.70;98.00
4505;DHT22;2265;48.794;9.520;2023-08-06T07:02:31;16.60;98.00
4505;DHT22;2265;48.794;9.520;2023-08-06T07:04:58;16.40;98.00
4505;DHT22;2265;48.794;9.520;2023-08-06T07:07:26;16.40;98.00
4505;DHT22;2265;48.794;9.520;2023-08-06T07:09:53;16.50;98.00
4505;DHT22;2265;48.794;9.520;2023-08-06T07:12:21;16.40;98.00
4505;DHT22;2265;48.794;9.520;2023-08-06T07:14:49;16.40;98.00
4505;DHT22;2265;48.794;9.520;2023-08-06T07:17:16;16.40;98.00
4505;DHT22;2265;48.794;9.520;2023-08-06T07:19:43;16.30;98.00
4505;DHT22;2265;48.794;9.520;2023-08-06T07:22:10;16.30;98.00
4505;DHT22;2265;48.794;9.520;2023-08-06T07:24:39;16.40;98.00
4505;DHT22;2265;48.794;9.520;2023-08-06T07:27:07;16.40;98.00
4505;DHT22;2265;48.794;9.520;2023-08-06T07:29:34;16.50;98.00
4505;DHT22;2265;48.794;9.520;2023-08-06T07:32:01;16.50;98.00
4505;DHT22;2265;48.794;9.520;2023-08-06T07:34:28;16.40;98.00
4505;DHT22;2265;48.794;9.520;2023-08-06T07:36:55;16.50;98.00
4505;DHT22;2265;48.794;9.520;2023-08-06T07:39:22;16.40;98.00
4505;DHT22;2265;48.794;9.520;2023-08-06T07:41:51;16.30;98.00
4505;DHT22;2265;48.794;9.520;2023-08-06T07:44:18;16.20;98.00
4505;DHT22;2265;48.794;9.520;2023-08-06T07:46:45;16.10;98.00
4505;DHT22;2265;48.794;9.520;2023-08-06T07:49:12;16.20;98.00
4505;DHT22;2265;48.794;9.520;2023-08-06T07:54:13;16.00;98.00
4505;DHT22;2265;48.794;9.520;2023-08-06T07:56:40;16.00;98.00
4505;DHT22;2265;48.794;9.520;2023-08-06T07:59:08;16.00;98.00
4505;DHT22;2265;48.794;9.520;2023-08-06T08:01:35;16.00;98.00
4505;DHT22;2265;48.794;9.520;2023-08-06T08:04:03;15.90;98.00
4505;DHT22;2265;48.794;9.520;2023-08-06T08:06:30;15.80;98.00
4505;DHT22;2265;48.794;9.520;2023-08-06T08:08:58;16.00;98.00
4505;DHT22;2265;48.794;9.520;2023-08-06T08:11:26;16.00;98.00
4505;DHT22;2265;48.794;9.520;2023-08-06T08:13:54;16.00;98.00
4505;DHT22;2265;48.794;9.520;2023-08-06T08:16:23;16.00;98.00
4505;DHT22;2265;48.794;9.520;2023-08-06T08:18:50;16.20;98.00
4505;DHT22;2265;48.794;9.520;2023-08-06T08:21:22;16.30;98.00
4505;DHT22;2265;48.794;9.520;2023-08-06T08:23:49;16.50;98.00
4505;DHT22;2265;48.794;9.520;2023-08-06T08:26:16;16.60;98.00
4505;DHT22;2265;48.794;9.520;2023-08-06T08:28:44;16.50;98.00
4505;DHT22;2265;48.794;9.520;2023-08-06T08:31:13;16.70;98.00
4505;DHT22;2265;48.794;9.520;2023-08-06T08:33:41;16.80;98.00
4505;DHT22;2265;48.794;9.520;2023-08-06T08:36:09;16.90;98.00
4505;DHT22;2265;48.794;9.520;2023-08-06T08:38:36;16.90;98.00
4505;DHT22;2265;48.794;9.520;2023-08-06T08:41:04;16.90;98.00
4505;DHT22;2265;48.794;9.520;2023-08-06T08:43:31;17.00;98.00
4505;DHT22;2265;48.794;9.520;2023-08-06T08:46:01;17.20;98.00
4505;DHT22;2265;48.794;9.520;2023-08-06T08:48:28;17.30;98.00
4505;DHT22;2265;48.794;9.520;2023-08-06T08:50:57;17.40;98.00
4505;DHT22;2265;48.794;9.520;2023-08-06T08:53:25;17.50;98.00
4505;DHT22;2265;48.794;9.520;2023-08-06T08:55:54;17.70;98.00
4505;DHT22;2265;48.794;9.520;2023-08-06T08:58:21;17.70;98.00
4505;DHT22;2265;48.794;9.520;2023-08-06T09:00:49;17.80;98.00
4505;DHT22;2265;48.794;9.520;2023-08-06T09:03:16;17.80;98.00
4505;DHT22;2265;48.794;9.520;2023-08-06T09:05:45;17.90;98.00
4505;DHT22;2265;48.794;9.520;2023-08-06T09:08:24;17.90;98.00
4505;DHT22;2265;48.794;9.520;2023-08-06T09:10:52;18.00;98.00
4505;DHT22;2265;48.794;9.520;2023-08-06T09:13:20;17.80;98.00
4505;DHT22;2265;48.794;9.520;2023-08-06T09:15:49;17.60;98.00
4505;DHT22;2265;48.794;9.520;2023-08-06T09:18:25;17.60;98.00
4505;DHT22;2265;48.794;9.520;2023-08-06T09:20:52;17.80;98.00
4505;DHT22;2265;48.794;9.520;2023-08-06T09:23:20;17.50;98.00
4505;DHT22;2265;48.794;9.520;2023-08-06T09:25:53;17.20;98.00
4505;DHT22;2265;48.794;9.520;2023-08-06T09:28:21;16.90;98.00
4505;DHT22;2265;48.794;9.520;2023-08-06T09:30:50;16.90;98.00
4505;DHT22;2265;48.794;9.520;2023-08-06T09:33:22;16.90;98.00
4505;DHT22;2265;48.794;9.520;2023-08-06T09:35:50;16.80;98.00
4505;DHT22;2265;48.794;9.520;2023-08-06T09:38:21;16.90;98.00
4505;DHT22;2265;48.794;9.520;2023-08-06T09:40:49;16.80;98.00
4505;DHT22;2265;48.794;9.520;2023-08-06T09:43:19;16.70;98.00
4505;DHT22;2265;48.794;9.520;2023-08-06T09:45:46;16.70;98.00
4505;DHT22;2265;48.794;9.520;2023-08-06T09:48:13;16.70;98.00
4505;DHT22;2265;48.794;9.520;2023-08-06T09:50:40;16.70;98.00
4505;DHT22;2265;48.794;9.520;2023-08-06T09:53:08;16.80;98.00
4505;DHT22;2265;48.794;9.520;2023-08-06T09:55:36;17.00;98.00
4505;DHT22;2265;48.794;9.520;2023-08-06T09:58:04;17.00;98.00
4505;DHT22;2265;48.794;9.520;2023-08-06T10:00:33;17.00;98.00
4505;DHT22;2265;48.794;9.520;2023-08-06T10:03:00;17.10;98.00
4505;DHT22;2265;48.794;9.520;2023-08-06T10:05:31;17.00;98.00
4505;DHT22;2265;48.794;9.520;2023-08-06T10:08:01;17.10;98.00
4505;DHT22;2265;48.794;9.520;2023-08-06T10:10:29;17.00;98.00
4505;DHT22;2265;48.794;9.520;2023-08-06T10:12:59;16.90;98.00
4505;DHT22;2265;48.794;9.520;2023-08-06T10:15:31;16.90;98.00
4505;DHT22;2265;48.794;9.520;2023-08-06T10:18:00;16.90;98.00
4505;DHT22;2265;48.794;9.520;2023-08-06T10:20:33;16.90;98.00
4505;DHT22;2265;48.794;9.520;2023-08-06T10:23:01;16.90;98.00
4505;DHT22;2265;48.794;9.520;2023-08-06T10:25:32;16.90;98.00
4505;DHT22;2265;48.794;9.520;2023-08-06T10:28:07;16.90;98.00
4505;DHT22;2265;48.794;9.520;2023-08-06T10:30:42;16.90;98.00
4505;DHT22;2265;48.794;9.520;2023-08-06T10:33:10;16.90;98.00
4505;DHT22;2265;48.794;9.520;2023-08-06T10:35:38;16.90;98.00
4505;DHT22;2265;48.794;9.520;2023-08-06T10:38:10;17.00;98.00
4505;DHT22;2265;48.794;9.520;2023-08-06T10:40:41;16.90;98.00
4505;DHT22;2265;48.794;9.520;2023-08-06T10:43:25;16.80;98.00
4505;DHT22;2265;48.794;9.520;2023-08-06T10:45:53;16.80;98.00
4505;DHT22;2265;48.794;9.520;2023-08-06T10:48:30;16.80;98.00
4505;DHT22;2265;48.794;9.520;2023-08-06T10:50:59;17.00;98.00
4505;DHT22;2265;48.794;9.520;2023-08-06T10:53:26;17.10;98.00
4505;DHT22;2265;48.794;9.520;2023-08-06T10:55:55;17.10;98.00
4505;DHT22;2265;48.794;9.520;2023-08-06T10:58:23;17.00;98.00
4505;DHT22;2265;48.794;9.520;2023-08-06T11:00:50;16.90;98.00
4505;DHT22;2265;48.794;9.520;2023-08-06T11:03:17;16.90;98.00
4505;DHT22;2265;48.794;9.520;2023-08-06T11:05:48;16.80;98.00
4505;DHT22;2265;48.794;9.520;2023-08-06T11:08:23;16.80;98.00
4505;DHT22;2265;48.794;9.520;2023-08-06T11:10:50;16.80;98.00
4505;DHT22;2265;48.794;9.520;2023-08-06T11:13:18;16.90;98.00
4505;DHT22;2265;48.794;9.520;2023-08-06T11:15:46;17.00;98.00
4505;DHT22;2265;48.794;9.520;2023-08-06T11:18:14;17.20;98.00
4505;DHT22;2265;48.794;9.520;2023-08-06T11:20:41;17.20;98.00
4505;DHT22;2265;48.794;9.520;2023-08-06T11:23:10;17.20;98.00
4505;DHT22;2265;48.794;9.520;2023-08-06T11:25:38;17.30;98.00
4505;DHT22;2265;48.794;9.520;2023-08-06T11:28:11;17.40;98.00
4505;DHT22;2265;48.794;9.520;2023-08-06T11:30:38;17.10;98.00
4505;DHT22;2265;48.794;9.520;2023-08-06T11:33:07;16.80;98.00
4505;DHT22;2265;48.794;9.520;2023-08-06T11:35:35;16.90;98.00
4505;DHT22;2265;48.794;9.520;2023-08-06T11:38:03;16.90;98.00
4505;DHT22;2265;48.794;9.520;2023-08-06T11:40:31;16.80;98.00
4505;DHT22;2265;48.794;9.520;2023-08-06T11:42:58;16.80;98.00
4505;DHT22;2265;48.794;9.520;2023-08-06T11:45:26;16.80;98.00
4505;DHT22;2265;48.794;9.520;2023-08-06T11:48:00;16.80;98.00
4505;DHT22;2265;48.794;9.520;2023-08-06T11:50:30;16.60;98.00
4505;DHT22;2265;48.794;9.520;2023-08-06T11:53:00;16.50;98.00
4505;DHT22;2265;48.794;9.520;2023-08-06T11:55:28;16.30;98.00
4505;DHT22;2265;48.794;9.520;2023-08-06T11:57:55;16.30;98.00
4505;DHT22;2265;48.794;9.520;2023-08-06T12:00:24;16.30;98.00
4505;DHT22;2265;48.794;9.520;2023-08-06T12:02:52;16.20;98.00
4505;DHT22;2265;48.794;9.520;2023-08-06T12:05:22;16.30;98.00
4505;DHT22;2265;48.794;9.520;2023-08-06T12:07:52;16.30;98.00
4505;DHT22;2265;48.794;9.520;2023-08-06T12:10:22;16.30;98.00
4505;DHT22;2265;48.794;9.520;2023-08-06T12:12:52;16.20;98.00
4505;DHT22;2265;48.794;9.520;2023-08-06T12:15:20;16.10;98.00
4505;DHT22;2265;48.794;9.520;2023-08-06T12:17:47;16.20;98.00
4505;DHT22;2265;48.794;9.520;2023-08-06T12:20:14;16.20;98.00
4505;DHT22;2265;48.794;9.520;2023-08-06T12:22:42;16.20;98.00
4505;DHT22;2265;48.794;9.520;2023-08-06T12:25:11;16.10;98.00
4505;DHT22;2265;48.794;9.520;2023-08-06T12:27:42;16.00;98.00
4505;DHT22;2265;48.794;9.520;2023-08-06T12:30:10;16.00;98.00
4505;DHT22;2265;48.794;9.520;2023-08-06T12:32:38;15.90;98.00
4505;DHT22;2265;48.794;9.520;2023-08-06T12:35:08;15.90;98.00
4505;DHT22;2265;48.794;9.520;2023-08-06T12:37:35;15.80;98.00
4505;DHT22;2265;48.794;9.520;2023-08-06T12:40:05;15.70;98.00
4505;DHT22;2265;48.794;9.520;2023-08-06T12:42:34;15.60;98.00
4505;DHT22;2265;48.794;9.520;2023-08-06T12:45:01;15.50;98.00
4505;DHT22;2265;48.794;9.520;2023-08-06T12:47:30;15.50;98.00
4505;DHT22;2265;48.794;9.520;2023-08-06T12:49:57;15.50;98.00
4505;DHT22;2265;48.794;9.520;2023-08-06T12:52:24;15.50;98.00
4505;DHT22;2265;48.794;9.520;2023-08-06T12:54:54;15.40;98.00
4505;DHT22;2265;48.794;9.520;2023-08-06T12:57:22;15.50;98.00
4505;DHT22;2265;48.794;9.520;2023-08-06T12:59:50;15.50;98.00
4505;DHT22;2265;48.794;9.520;2023-08-06T13:02:17;15.50;98.00
4505;DHT22;2265;48.794;9.520;2023-08-06T13:04:46;15.60;98.00
4505;DHT22;2265;48.794;9.520;2023-08-06T13:07:13;15.70;98.00
4505;DHT22;2265;48.794;9.520;2023-08-06T13:09:41;15.80;98.00
4505;DHT22;2265;48.794;9.520;2023-08-06T13:12:10;15.80;98.00
4505;DHT22;2265;48.794;9.520;2023-08-06T13:14:38;15.80;98.00
4505;DHT22;2265;48.794;9.520;2023-08-06T13:17:07;15.90;98.00
4505;DHT22;2265;48.794;9.520;2023-08-06T13:19:38;16.00;98.00
4505;DHT22;2265;48.794;9.520;2023-08-06T13:22:06;16.00;98.00
4505;DHT22;2265;48.794;9.520;2023-08-06T13:24:41;16.00;98.00
4505;DHT22;2265;48.794;9.520;2023-08-06T13:27:08;15.90;98.00
4505;DHT22;2265;48.794;9.520;2023-08-06T13:29:36;15.90;98.00
4505;DHT22;2265;48.794;9.520;2023-08-06T13:32:06;15.90;98.00
4505;DHT22;2265;48.794;9.520;2023-08-06T13:34:33;16.00;98.00
4505;DHT22;2265;48.794;9.520;2023-08-06T13:37:00;16.10;98.00
4505;DHT22;2265;48.794;9.520;2023-08-06T13:39:28;16.20;98.00
4505;DHT22;2265;48.794;9.520;2023-08-06T13:41:55;16.30;98.00
4505;DHT22;2265;48.794;9.520;2023-08-06T13:44:22;16.50;98.00
4505;DHT22;2265;48.794;9.520;2023-08-06T13:46:49;16.40;98.00
4505;DHT22;2265;48.794;9.520;2023-08-06T13:49:26;16.40;98.00
4505;DHT22;2265;48.794;9.520;2023-08-06T13:51:53;16.40;98.00
4505;DHT22;2265;48.794;9.520;2023-08-06T13:54:20;16.30;98.00
4505;DHT22;2265;48.794;9.520;2023-08-06T13:56:48;16.50;98.00
4505;DHT22;2265;48.794;9.520;2023-08-06T13:59:16;16.60;98.00
4505;DHT22;2265;48.794;9.520;2023-08-06T14:01:45;16.60;98.00
4505;DHT22;2265;48.794;9.520;2023-08-06T14:04:13;16.60;98.00
4505;DHT22;2265;48.794;9.520;2023-08-06T14:06:41;16.60;98.00
4505;DHT22;2265;48.794;9.520;2023-08-06T14:09:08;16.50;98.00
4505;DHT22;2265;48.794;9.520;2023-08-06T14:11:38;16.50;98.00
4505;DHT22;2265;48.794;9.520;2023-08-06T14:14:05;16.50;98.00
4505;DHT22;2265;48.794;9.520;2023-08-06T14:16:33;16.40;98.00
4505;DHT22;2265;48.794;9.520;2023-08-06T14:19:00;16.50;98.00
4505;DHT22;2265;48.794;9.520;2023-08-06T14:21:27;16.50;98.00
4505;DHT22;2265;48.794;9.520;2023-08-06T14:23:55;16.60;98.00
4505;DHT22;2265;48.794;9.520;2023-08-06T14:26:23;16.70;98.00
4505;DHT22;2265;48.794;9.520;2023-08-06T14:28:50;16.60;98.00
4505;DHT22;2265;48.794;9.520;2023-08-06T14:31:20;16.70;98.00
4505;DHT22;2265;48.794;9.520;2023-08-06T14:33:50;16.60;98.00
4505;DHT22;2265;48.794;9.520;2023-08-06T14:36:17;16.50;98.00
4505;DHT22;2265;48.794;9.520;2023-08-06T14:38:44;16.30;98.00
4505;DHT22;2265;48.794;9.520;2023-08-06T14:41:12;16.30;98.00
4505;DHT22;2265;48.794;9.520;2023-08-06T14:43:39;16.30;98.00
4505;DHT22;2265;48.794;9.520;2023-08-06T14:46:07;16.30;98.00
4505;DHT22;2265;48.794;9.520;2023-08-06T14:48:34;16.50;98.00
4505;DHT22;2265;48.794;9.520;2023-08-06T14:51:01;16.50;98.00
4505;DHT22;2265;48.794;9.520;2023-08-06T14:53:28;16.60;98.00
4505;DHT22;2265;48.794;9.520;2023-08-06T14:55:55;16.80;98.00
4505;DHT22;2265;48.794;9.520;2023-08-06T14:58:23;16.90;98.00
4505;DHT22;2265;48.794;9.520;2023-08-06T15:00:50;16.90;98.00
4505;DHT22;2265;48.794;9.520;2023-08-06T15:03:17;17.00;98.00
4505;DHT22;2265;48.794;9.520;2023-08-06T15:05:47;16.90;98.00
4505;DHT22;2265;48.794;9.520;2023-08-06T15:08:14;16.90;98.00
4505;DHT22;2265;48.794;9.520;2023-08-06T15:10:42;16.80;98.00
4505;DHT22;2265;48.794;9.520;2023-08-06T15:13:09;16.60;98.00
4505;DHT22;2265;48.794;9.520;2023-08-06T15:15:38;16.60;98.00
4505;DHT22;2265;48.794;9.520;2023-08-06T15:18:08;16.50;98.00
4505;DHT22;2265;48.794;9.520;2023-08-06T15:20:35;16.40;98.00
4505;DHT22;2265;48.794;9.520;2023-08-06T15:23:02;16.20;98.00
4505;DHT22;2265;48.794;9.520;2023-08-06T15:25:29;16.20;98.00
4505;DHT22;2265;48.794;9.520;2023-08-06T15:27:56;16.20;98.00
4505;DHT22;2265;48.794;9.520;2023-08-06T15:30:26;16.10;98.00
4505;DHT22;2265;48.794;9.520;2023-08-06T15:32:58;16.10;98.00
4505;DHT22;2265;48.794;9.520;2023-08-06T15:35:25;16.00;98.00
4505;DHT22;2265;48.794;9.520;2023-08-06T15:37:52;15.90;98.00
4505;DHT22;2265;48.794;9.520;2023-08-06T15:40:19;16.00;98.00
4505;DHT22;2265;48.794;9.520;2023-08-06T15:42:46;16.00;98.00
4505;DHT22;2265;48.794;9.520;2023-08-06T15:45:13;16.10;98.00
4505;DHT22;2265;48.794;9.520;2023-08-06T15:47:40;15.90;98.00
4505;DHT22;2265;48.794;9.520;2023-08-06T15:50:09;15.90;98.00
4505;DHT22;2265;48.794;9.520;2023-08-06T15:52:36;16.00;98.00
4505;DHT22;2265;48.794;9.520;2023-08-06T15:55:04;16.00;98.00
4505;DHT22;2265;48.794;9.520;2023-08-06T15:57:32;16.10;98.00
4505;DHT22;2265;48.794;9.520;2023-08-06T16:00:00;16.10;98.00
4505;DHT22;2265;48.794;9.520;2023-08-06T16:02:27;16.10;98.00
4505;DHT22;2265;48.794;9.520;2023-08-06T16:04:55;16.20;98.00
4505;DHT22;2265;48.794;9.520;2023-08-06T16:07:24;16.00;98.00
4505;DHT22;2265;48.794;9.520;2023-08-06T16:09:53;16.20;98.00
4505;DHT22;2265;48.794;9.520;2023-08-06T16:12:20;16.10;98.00
4505;DHT22;2265;48.794;9.520;2023-08-06T16:14:48;16.20;98.00
4505;DHT22;2265;48.794;9.520;2023-08-06T16:17:15;16.10;98.00
4505;DHT22;2265;48.794;9.520;2023-08-06T16:19:43;16.10;98.00